createdAt,value
2018-11-14T00:01:44.002Z,100.00
2018-11-14T00:04:14.647Z,100.00
2018-11-14T00:06:45.217Z,100.00
2018-11-14T00:09:30.531Z,100.00
2018-11-14T00:12:01.154Z,100.00
2018-11-14T00:14:31.606Z,100.00
2018-11-14T00:17:02.193Z,100.00
2018-11-14T00:19:32.775Z,100.00
2018-11-14T00:22:03.416Z,100.00
2018-11-14T00:24:34.053Z,100.00
2018-11-14T00:27:05.490Z,100.00
2018-11-14T00:29:36.052Z,100.00
2018-11-14T00:32:06.647Z,100.00
2018-11-14T00:34:37.302Z,100.00
2018-11-14T00:37:08.026Z,100.00
2018-11-14T00:39:38.566Z,100.00
2018-11-14T00:42:09.093Z,100.00
2018-11-14T00:44:39.648Z,100.00
2018-11-14T00:47:10.200Z,100.00
2018-11-14T00:49:40.769Z,100.00
2018-11-14T00:52:11.272Z,100.00
2018-11-14T00:54:43.287Z,100.00
2018-11-14T00:57:13.796Z,100.00
2018-11-14T00:59:44.334Z,100.00
2018-11-14T01:02:14.834Z,100.00
2018-11-14T01:04:45.354Z,100.00
2018-11-14T01:07:15.942Z,100.00
2018-11-14T01:09:46.503Z,100.00
2018-11-14T01:12:16.984Z,100.00
2018-11-14T01:14:47.505Z,100.00
2018-11-14T01:17:26.059Z,100.00
2018-11-14T01:19:56.446Z,100.00
2018-11-14T01:22:27.003Z,100.00
2018-11-14T01:24:57.523Z,100.00
2018-11-14T01:27:28.140Z,100.00
2018-11-14T01:29:58.673Z,100.00
2018-11-14T01:32:29.238Z,100.00
2018-11-14T01:34:59.925Z,100.00
2018-11-14T01:37:30.631Z,100.00
2018-11-14T01:40:01.045Z,100.00
2018-11-14T01:42:31.616Z,100.00
2018-11-14T01:45:07.531Z,100.00
2018-11-14T01:47:38.066Z,100.00
2018-11-14T01:50:09.769Z,100.00
2018-11-14T01:52:40.528Z,100.00
2018-11-14T01:55:13.290Z,100.00
2018-11-14T01:57:44.045Z,100.00
2018-11-14T02:00:16.602Z,100.00
2018-11-14T02:02:47.178Z,100.00
2018-11-14T02:05:17.877Z,100.00
2018-11-14T02:07:48.396Z,100.00
2018-11-14T02:10:19.976Z,100.00
2018-11-14T02:12:50.477Z,100.00
2018-11-14T02:15:22.187Z,100.00
2018-11-14T02:17:53.266Z,100.00
2018-11-14T02:20:23.854Z,100.00
2018-11-14T02:22:54.622Z,100.00
2018-11-14T02:25:25.227Z,100.00
2018-11-14T02:27:55.853Z,100.00
2018-11-14T02:30:26.411Z,100.00
2018-11-14T02:32:57.029Z,100.00
2018-11-14T02:35:27.483Z,100.00
2018-11-14T02:37:58.412Z,100.00
2018-11-14T02:40:28.911Z,100.00
2018-11-14T02:42:59.424Z,100.00
2018-11-14T02:45:30.066Z,100.00
2018-11-14T02:48:00.558Z,100.00
2018-11-14T02:50:31.113Z,100.00
2018-11-14T02:53:01.643Z,100.00
2018-11-14T02:55:32.162Z,100.00
2018-11-14T02:58:02.844Z,100.00
2018-11-14T03:00:33.364Z,100.00
2018-11-14T03:03:03.982Z,100.00
2018-11-14T03:05:34.582Z,100.00
2018-11-14T03:08:05.113Z,100.00
2018-11-14T03:10:35.655Z,100.00
2018-11-14T03:13:06.759Z,100.00
2018-11-14T03:15:37.314Z,100.00
2018-11-14T03:18:08.006Z,100.00
2018-11-14T03:20:38.483Z,100.00
2018-11-14T03:23:09.016Z,100.00
2018-11-14T03:25:39.497Z,100.00
2018-11-14T03:28:10.117Z,100.00
2018-11-14T03:30:40.810Z,100.00
2018-11-14T03:33:11.390Z,100.00
2018-11-14T03:35:46.849Z,100.00
2018-11-14T03:38:17.369Z,100.00
2018-11-14T03:40:47.931Z,100.00
2018-11-14T03:43:18.381Z,100.00
2018-11-14T03:45:48.911Z,100.00
2018-11-14T03:48:19.357Z,100.00
2018-11-14T03:50:50.020Z,100.00
2018-11-14T03:53:20.680Z,100.00
2018-11-14T03:55:51.328Z,100.00
2018-11-14T03:58:22.117Z,100.00
2018-11-14T04:00:52.672Z,100.00
2018-11-14T04:03:23.351Z,100.00
2018-11-14T04:05:54.038Z,100.00
2018-11-14T04:08:24.581Z,100.00
2018-11-14T04:10:55.145Z,100.00
2018-11-14T04:13:25.718Z,100.00
2018-11-14T04:15:56.312Z,100.00
2018-11-14T04:18:27.149Z,100.00
2018-11-14T04:20:57.798Z,100.00
2018-11-14T04:23:28.438Z,100.00
2018-11-14T04:25:59.036Z,100.00
2018-11-14T04:28:29.630Z,100.00
2018-11-14T04:31:00.190Z,100.00
2018-11-14T04:33:30.786Z,100.00
2018-11-14T04:36:01.382Z,100.00
2018-11-14T04:38:32.166Z,100.00
2018-11-14T04:41:02.762Z,100.00
2018-11-14T04:43:33.341Z,100.00
2018-11-14T04:46:04.643Z,100.00
2018-11-14T04:48:35.729Z,100.00
2018-11-14T04:51:06.702Z,100.00
2018-11-14T04:53:37.215Z,100.00
2018-11-14T04:56:08.152Z,100.00
2018-11-14T04:58:38.977Z,100.00
2018-11-14T05:01:09.470Z,100.00
2018-11-14T05:03:40.010Z,100.00
2018-11-14T05:06:10.542Z,100.00
2018-11-14T05:08:41.153Z,100.00
2018-11-14T05:11:11.663Z,100.00
2018-11-14T05:13:42.232Z,100.00
2018-11-14T05:16:12.795Z,100.00
2018-11-14T05:18:43.524Z,100.00
2018-11-14T05:21:14.106Z,100.00
2018-11-14T05:23:44.625Z,100.00
2018-11-14T05:26:15.153Z,100.00
2018-11-14T05:28:45.617Z,100.00
2018-11-14T05:31:16.159Z,100.00
2018-11-14T05:33:46.678Z,100.00
2018-11-14T05:36:17.259Z,100.00
2018-11-14T05:38:48.058Z,100.00
2018-11-14T05:41:18.629Z,100.00
2018-11-14T05:43:49.274Z,100.00
2018-11-14T05:46:19.893Z,100.00
2018-11-14T05:48:50.446Z,100.00
2018-11-14T05:51:21.022Z,100.00
2018-11-14T05:53:51.670Z,100.00
2018-11-14T05:56:22.149Z,100.00
2018-11-14T05:58:54.543Z,100.00
2018-11-14T06:01:25.070Z,100.00
2018-11-14T06:03:55.662Z,100.00
2018-11-14T06:06:26.220Z,100.00
2018-11-14T06:08:56.840Z,100.00
2018-11-14T06:11:27.468Z,100.00
2018-11-14T06:13:57.984Z,100.00
2018-11-14T06:16:28.584Z,100.00
2018-11-14T06:18:59.283Z,100.00
2018-11-14T06:21:29.772Z,100.00
2018-11-14T06:24:00.336Z,100.00
2018-11-14T06:26:30.906Z,100.00
2018-11-14T06:29:01.396Z,100.00
2018-11-14T06:31:31.941Z,100.00
2018-11-14T06:34:02.447Z,100.00
2018-11-14T06:36:33.100Z,100.00
2018-11-14T06:39:04.096Z,100.00
2018-11-14T06:41:34.721Z,100.00
2018-11-14T06:44:05.258Z,100.00
2018-11-14T06:46:35.861Z,100.00
2018-11-14T06:49:06.606Z,100.00
2018-11-14T06:51:37.220Z,100.00
2018-11-14T06:54:07.888Z,100.00
2018-11-14T06:56:38.568Z,100.00
2018-11-14T06:59:09.564Z,100.00
2018-11-14T07:01:40.135Z,100.00
2018-11-14T07:04:10.783Z,100.00
2018-11-14T07:06:41.360Z,100.00
2018-11-14T07:09:13.329Z,100.00
2018-11-14T07:11:43.876Z,100.00
2018-11-14T07:14:14.498Z,100.00
2018-11-14T07:16:45.151Z,100.00
2018-11-14T07:19:15.935Z,100.00
2018-11-14T07:21:46.422Z,100.00
2018-11-14T07:24:17.144Z,100.00
2018-11-14T07:26:47.730Z,100.00
2018-11-14T07:29:18.290Z,100.00
2018-11-14T07:31:48.979Z,100.00
2018-11-14T07:34:19.609Z,100.00
2018-11-14T07:36:50.243Z,100.00
2018-11-14T07:39:21.108Z,100.00
2018-11-14T07:41:51.655Z,100.00
2018-11-14T07:44:22.189Z,100.00
2018-11-14T07:46:52.680Z,100.00
2018-11-14T07:49:23.267Z,100.00
2018-11-14T07:51:53.870Z,100.00
2018-11-14T07:54:24.596Z,100.00
2018-11-14T07:56:55.102Z,100.00
2018-11-14T07:59:25.843Z,100.00
2018-11-14T08:01:56.419Z,100.00
2018-11-14T08:04:27.100Z,100.00
2018-11-14T08:06:57.654Z,100.00
2018-11-14T08:09:28.188Z,100.00
2018-11-14T08:11:58.703Z,100.00
2018-11-14T08:14:29.344Z,100.00
2018-11-14T08:17:00.217Z,100.00
2018-11-14T08:19:31.937Z,100.00
2018-11-14T08:22:02.557Z,100.00
2018-11-14T08:24:33.071Z,100.00
2018-11-14T08:27:03.659Z,100.00
2018-11-14T08:29:34.162Z,100.00
2018-11-14T08:32:04.630Z,100.00
2018-11-14T08:34:35.271Z,100.00
2018-11-14T08:37:05.963Z,100.00
2018-11-14T08:39:36.671Z,99.69
2018-11-14T08:42:07.557Z,99.98
2018-11-14T08:44:38.167Z,98.91
2018-11-14T08:47:08.764Z,99.02
2018-11-14T08:49:39.267Z,100.00
2018-11-14T08:52:09.875Z,100.00
2018-11-14T08:54:40.460Z,96.33
2018-11-14T08:57:10.968Z,94.94
2018-11-14T08:59:41.631Z,95.88
2018-11-14T09:02:12.279Z,95.04
2018-11-14T09:04:42.893Z,94.71
2018-11-14T09:07:13.426Z,95.39
2018-11-14T09:09:44.110Z,96.23
2018-11-14T09:12:14.652Z,96.22
2018-11-14T09:14:45.395Z,95.15
2018-11-14T09:17:16.080Z,95.59
2018-11-14T09:19:46.735Z,96.93
2018-11-14T09:22:17.339Z,96.26
2018-11-14T09:24:47.977Z,95.71
2018-11-14T09:27:18.686Z,95.68
2018-11-14T09:29:49.287Z,96.03
2018-11-14T09:32:19.831Z,96.71
2018-11-14T09:34:50.645Z,95.81
2018-11-14T09:37:21.387Z,96.38
2018-11-14T09:39:52.218Z,94.89
2018-11-14T09:42:22.728Z,93.86
2018-11-14T09:44:53.663Z,95.00
2018-11-14T09:47:24.202Z,95.00
2018-11-14T09:49:54.721Z,93.86
2018-11-14T09:52:25.328Z,94.48
2018-11-14T09:54:55.794Z,94.97
2018-11-14T09:57:26.554Z,93.15
2018-11-14T09:59:57.223Z,94.11
2018-11-14T10:02:27.756Z,93.08
2018-11-14T10:04:58.409Z,93.36
2018-11-14T10:07:28.849Z,92.52
2018-11-14T10:09:59.364Z,90.72
2018-11-14T10:12:29.896Z,91.68
2018-11-14T10:15:00.502Z,91.11
2018-11-14T10:17:31.053Z,91.94
2018-11-14T10:20:01.841Z,93.21
2018-11-14T10:22:32.310Z,92.66
2018-11-14T10:25:02.878Z,91.83
2018-11-14T10:27:33.436Z,91.54
2018-11-14T10:30:04.160Z,91.34
2018-11-14T10:32:34.662Z,92.17
2018-11-14T10:35:05.292Z,91.75
2018-11-14T10:37:36.948Z,91.93
2018-11-14T10:40:09.402Z,92.39
2018-11-14T10:42:40.777Z,92.62
2018-11-14T10:45:13.237Z,92.31
2018-11-14T10:47:43.813Z,92.58
2018-11-14T10:50:16.638Z,92.30
2018-11-14T10:52:47.292Z,93.10
2018-11-14T10:55:18.298Z,90.92
2018-11-14T10:57:48.819Z,90.85
2018-11-14T11:00:27.465Z,90.95
2018-11-14T11:03:03.340Z,90.23
2018-11-14T11:05:44.475Z,90.54
2018-11-14T11:08:20.377Z,91.59
2018-11-14T11:10:55.839Z,90.86
2018-11-14T11:13:31.315Z,92.59
2018-11-14T11:16:06.592Z,91.97
2018-11-14T11:18:37.311Z,91.54
2018-11-14T11:21:07.909Z,90.84
2018-11-14T11:23:38.711Z,91.52
2018-11-14T11:26:09.170Z,91.68
2018-11-14T11:28:39.870Z,92.55
2018-11-14T11:31:10.451Z,92.17
2018-11-14T11:33:41.099Z,89.79
2018-11-14T11:36:11.600Z,88.18
2018-11-14T11:38:42.162Z,89.64
2018-11-14T11:41:12.779Z,90.21
2018-11-14T11:43:43.349Z,91.23
2018-11-14T11:46:13.859Z,91.06
2018-11-14T11:48:44.308Z,89.55
2018-11-14T11:51:14.948Z,90.69
2018-11-14T11:53:45.517Z,90.05
2018-11-14T11:56:16.132Z,90.89
2018-11-14T11:58:46.777Z,89.33
2018-11-14T12:01:17.658Z,89.58
2018-11-14T12:03:48.198Z,88.20
2018-11-14T12:06:18.865Z,87.54
2018-11-14T12:08:49.386Z,88.88
2018-11-14T12:11:19.971Z,89.04
2018-11-14T12:13:50.751Z,90.00
2018-11-14T12:16:21.343Z,88.57
2018-11-14T12:18:51.853Z,90.33
2018-11-14T12:21:22.398Z,90.32
2018-11-14T12:23:52.903Z,91.08
2018-11-14T12:26:23.446Z,88.16
2018-11-14T12:28:54.102Z,87.45
2018-11-14T12:31:24.684Z,89.58
2018-11-14T12:33:55.215Z,90.72
2018-11-14T12:36:25.794Z,91.51
2018-11-14T12:38:56.293Z,91.04
2018-11-14T12:41:26.979Z,90.56
2018-11-14T12:43:57.594Z,92.46
2018-11-14T12:46:28.263Z,90.95
2018-11-14T12:48:58.810Z,91.65
2018-11-14T12:51:29.351Z,92.38
2018-11-14T12:53:59.944Z,93.17
2018-11-14T12:56:30.546Z,94.57
2018-11-14T12:59:01.123Z,94.76
2018-11-14T13:01:31.867Z,95.96
2018-11-14T13:04:02.453Z,95.49
2018-11-14T13:06:33.011Z,95.92
2018-11-14T13:09:03.946Z,96.17
2018-11-14T13:11:34.503Z,96.39
2018-11-14T13:14:05.515Z,97.25
2018-11-14T13:16:36.180Z,97.21
2018-11-14T13:19:07.080Z,96.28
2018-11-14T13:21:37.885Z,97.36
2018-11-14T13:24:08.408Z,98.27
2018-11-14T13:26:38.949Z,97.30
2018-11-14T13:29:09.567Z,98.50
2018-11-14T13:31:40.172Z,97.83
2018-11-14T13:34:10.717Z,97.71
2018-11-14T13:36:41.188Z,97.46
2018-11-14T13:39:12.315Z,97.73
2018-11-14T13:41:42.979Z,97.70
2018-11-14T13:44:13.494Z,97.81
2018-11-14T13:46:44.059Z,97.34
2018-11-14T13:49:14.801Z,97.62
2018-11-14T13:51:45.125Z,98.42
2018-11-14T13:54:17.032Z,98.69
2018-11-14T13:56:47.598Z,99.06
2018-11-14T13:59:18.113Z,99.73
2018-11-14T14:01:48.748Z,100.00
2018-11-14T14:04:19.320Z,100.00
2018-11-14T14:06:49.937Z,100.00
2018-11-14T14:09:21.310Z,100.00
2018-11-14T14:11:51.962Z,100.00
2018-11-14T14:14:22.560Z,100.00
2018-11-14T14:16:53.079Z,100.00
2018-11-14T14:19:23.727Z,100.00
2018-11-14T14:21:54.656Z,100.00
2018-11-14T14:24:25.325Z,100.00
2018-11-14T14:26:55.812Z,100.00
2018-11-14T14:29:26.406Z,100.00
2018-11-14T14:31:56.986Z,100.00
2018-11-14T14:34:27.556Z,100.00
2018-11-14T14:36:58.069Z,100.00
2018-11-14T14:39:28.628Z,100.00
2018-11-14T14:42:00.244Z,100.00
2018-11-14T14:44:30.819Z,100.00
2018-11-14T14:47:01.343Z,100.00
2018-11-14T14:49:33.944Z,100.00
2018-11-14T14:52:05.288Z,100.00
2018-11-14T14:54:39.120Z,100.00
2018-11-14T14:57:10.409Z,100.00
2018-11-14T14:59:42.804Z,100.00
2018-11-14T15:02:14.434Z,100.00
2018-11-14T15:04:50.178Z,100.00
2018-11-14T15:07:28.544Z,100.00
2018-11-14T15:10:21.616Z,100.00
2018-11-14T15:12:55.175Z,100.00
2018-11-14T15:15:27.306Z,100.00
2018-11-14T15:17:59.125Z,100.00
2018-11-14T15:20:38.395Z,100.00
2018-11-14T15:23:11.085Z,100.00
2018-11-14T15:25:41.687Z,100.00
2018-11-14T15:28:12.213Z,100.00
2018-11-14T15:30:42.834Z,100.00
2018-11-14T15:33:13.376Z,100.00
2018-11-14T15:35:44.154Z,100.00
2018-11-14T15:38:14.773Z,100.00
2018-11-14T15:40:45.460Z,100.00
2018-11-14T15:43:16.329Z,100.00
2018-11-14T15:45:46.927Z,100.00
2018-11-14T15:48:17.445Z,100.00
2018-11-14T15:50:48.071Z,100.00
2018-11-14T15:53:18.709Z,100.00
2018-11-14T15:55:49.291Z,100.00
2018-11-14T15:58:19.904Z,100.00
2018-11-14T16:00:50.480Z,100.00
2018-11-14T16:03:21.109Z,100.00
2018-11-14T16:05:51.655Z,100.00
2018-11-14T16:08:22.251Z,100.00
2018-11-14T16:10:52.992Z,100.00
2018-11-14T16:13:23.658Z,100.00
2018-11-14T16:15:54.259Z,100.00
2018-11-14T16:18:24.893Z,100.00
2018-11-14T16:20:55.524Z,100.00
2018-11-14T16:23:26.285Z,100.00
2018-11-14T16:25:56.961Z,100.00
2018-11-14T16:28:27.593Z,100.00
2018-11-14T16:30:58.245Z,100.00
2018-11-14T16:33:29.264Z,100.00
2018-11-14T16:35:59.944Z,100.00
2018-11-14T16:38:30.643Z,100.00
2018-11-14T16:41:01.264Z,100.00
2018-11-14T16:43:32.026Z,100.00
2018-11-14T16:46:02.607Z,100.00
2018-11-14T16:48:33.321Z,100.00
2018-11-14T16:51:06.067Z,100.00
2018-11-14T16:53:38.143Z,100.00
2018-11-14T16:56:09.351Z,100.00
2018-11-14T16:58:39.974Z,100.00
2018-11-14T17:01:10.887Z,100.00
2018-11-14T17:03:41.788Z,100.00
2018-11-14T17:06:12.784Z,100.00
2018-11-14T17:08:43.431Z,100.00
2018-11-14T17:11:14.150Z,100.00
2018-11-14T17:13:44.733Z,100.00
2018-11-14T17:16:15.416Z,100.00
2018-11-14T17:18:46.115Z,100.00
2018-11-14T17:21:16.726Z,100.00
2018-11-14T17:23:47.548Z,100.00
2018-11-14T17:26:18.371Z,100.00
2018-11-14T17:28:48.982Z,100.00
2018-11-14T17:31:19.668Z,100.00
2018-11-14T17:33:50.280Z,100.00
2018-11-14T17:36:20.850Z,100.00
2018-11-14T17:38:51.492Z,100.00
2018-11-14T17:41:22.253Z,100.00
2018-11-14T17:43:54.174Z,100.00
2018-11-14T17:46:25.074Z,100.00
2018-11-14T17:48:55.873Z,100.00
2018-11-14T17:51:26.454Z,100.00
2018-11-14T17:53:57.007Z,100.00
2018-11-14T17:56:27.740Z,100.00
2018-11-14T17:58:58.446Z,100.00
2018-11-14T18:01:28.988Z,100.00
2018-11-14T18:03:59.631Z,100.00
2018-11-14T18:06:30.295Z,100.00
2018-11-14T18:09:00.851Z,100.00
2018-11-14T18:11:31.672Z,100.00
2018-11-14T18:14:02.218Z,100.00
2018-11-14T18:16:32.879Z,100.00
2018-11-14T18:19:03.496Z,100.00
2018-11-14T18:21:34.154Z,100.00
2018-11-14T18:24:04.991Z,100.00
2018-11-14T18:26:35.638Z,100.00
2018-11-14T18:29:06.373Z,100.00
2018-11-14T18:31:37.053Z,100.00
2018-11-14T18:34:07.591Z,100.00
2018-11-14T18:36:38.245Z,100.00
2018-11-14T18:39:12.112Z,100.00
2018-11-14T18:41:43.033Z,100.00
2018-11-14T18:44:13.902Z,100.00
2018-11-14T18:46:44.479Z,100.00
2018-11-14T18:49:15.051Z,100.00
2018-11-14T18:51:45.554Z,100.00
2018-11-14T18:54:16.060Z,100.00
2018-11-14T18:56:46.550Z,100.00
2018-11-14T18:59:17.145Z,100.00
2018-11-14T19:01:47.776Z,100.00
2018-11-14T19:04:18.503Z,100.00
2018-11-14T19:06:49.263Z,100.00
2018-11-14T19:09:19.791Z,100.00
2018-11-14T19:11:50.435Z,100.00
2018-11-14T19:14:21.010Z,100.00
2018-11-14T19:16:51.495Z,100.00
2018-11-14T19:19:22.095Z,100.00
2018-11-14T19:21:52.714Z,100.00
2018-11-14T19:24:23.638Z,100.00
2018-11-14T19:26:54.213Z,100.00
2018-11-14T19:29:24.833Z,100.00
2018-11-14T19:31:55.389Z,100.00
2018-11-14T19:34:25.869Z,100.00
2018-11-14T19:36:56.395Z,100.00
2018-11-14T19:39:26.873Z,100.00
2018-11-14T19:41:57.382Z,100.00
2018-11-14T19:44:28.046Z,100.00
2018-11-14T19:46:58.614Z,100.00
2018-11-14T19:49:29.274Z,100.00
2018-11-14T19:51:59.723Z,100.00
2018-11-14T19:54:30.287Z,100.00
2018-11-14T19:57:00.734Z,100.00
2018-11-14T19:59:31.223Z,100.00
2018-11-14T20:02:01.808Z,100.00
2018-11-14T20:04:32.706Z,100.00
2018-11-14T20:07:03.347Z,100.00
2018-11-14T20:09:33.878Z,100.00
2018-11-14T20:12:04.522Z,100.00
2018-11-14T20:14:35.147Z,100.00
2018-11-14T20:17:05.861Z,100.00
2018-11-14T20:19:36.453Z,100.00
2018-11-14T20:22:07.102Z,100.00
2018-11-14T20:24:37.817Z,100.00
2018-11-14T20:27:08.439Z,100.00
2018-11-14T20:29:39.014Z,100.00
2018-11-14T20:32:09.678Z,100.00
2018-11-14T20:34:41.076Z,100.00
2018-11-14T20:37:11.836Z,100.00
2018-11-14T20:39:42.464Z,100.00
2018-11-14T20:42:13.262Z,100.00
2018-11-14T20:44:43.854Z,100.00
2018-11-14T20:47:14.449Z,100.00
2018-11-14T20:49:45.048Z,100.00
2018-11-14T20:52:15.517Z,100.00
2018-11-14T20:54:46.150Z,100.00
2018-11-14T20:57:16.789Z,100.00
2018-11-14T20:59:47.370Z,100.00
2018-11-14T21:02:18.140Z,100.00
2018-11-14T21:04:49.093Z,100.00
2018-11-14T21:07:19.619Z,100.00
2018-11-14T21:09:50.210Z,100.00
2018-11-14T21:12:20.777Z,100.00
2018-11-14T21:14:51.388Z,100.00
2018-11-14T21:17:21.985Z,100.00
2018-11-14T21:19:53.151Z,100.00
2018-11-14T21:22:23.744Z,100.00
2018-11-14T21:24:54.491Z,100.00
2018-11-14T21:27:25.118Z,100.00
2018-11-14T21:29:55.702Z,100.00
2018-11-14T21:32:26.326Z,100.00
2018-11-14T21:34:56.909Z,100.00
2018-11-14T21:37:27.627Z,100.00
2018-11-14T21:39:58.246Z,100.00
2018-11-14T21:42:28.879Z,100.00
2018-11-14T21:44:59.636Z,100.00
2018-11-14T21:47:35.951Z,100.00
2018-11-14T21:50:06.759Z,100.00
2018-11-14T21:52:39.358Z,100.00
2018-11-14T21:55:11.226Z,100.00
2018-11-14T21:57:42.015Z,100.00
2018-11-14T22:00:17.591Z,100.00
2018-11-14T22:02:49.660Z,100.00
2018-11-14T22:05:20.528Z,100.00
2018-11-14T22:07:51.136Z,100.00
2018-11-14T22:10:23.445Z,100.00
2018-11-14T22:12:54.328Z,100.00
2018-11-14T22:15:25.900Z,100.00
2018-11-14T22:17:56.455Z,100.00
2018-11-14T22:20:27.882Z,100.00
2018-11-14T22:22:58.577Z,100.00
2018-11-14T22:25:30.428Z,100.00
2018-11-14T22:28:01.268Z,100.00
2018-11-14T22:30:33.962Z,100.00
2018-11-14T22:33:04.717Z,100.00
2018-11-14T22:35:38.886Z,100.00
2018-11-14T22:38:21.793Z,100.00
2018-11-14T22:40:56.936Z,100.00
2018-11-14T22:43:27.731Z,100.00
2018-11-14T22:46:12.738Z,100.00
2018-11-14T22:48:43.457Z,100.00
2018-11-14T22:51:14.059Z,100.00
2018-11-14T22:53:45.710Z,100.00
2018-11-14T22:56:24.569Z,100.00
2018-11-14T22:58:55.355Z,100.00
2018-11-14T23:01:25.935Z,100.00
2018-11-14T23:03:56.531Z,100.00
2018-11-14T23:06:27.423Z,100.00
2018-11-14T23:08:57.994Z,100.00
2018-11-14T23:11:28.609Z,100.00
2018-11-14T23:13:59.209Z,100.00
2018-11-14T23:16:29.837Z,100.00
2018-11-14T23:19:00.435Z,100.00
2018-11-14T23:21:31.028Z,100.00
2018-11-14T23:24:01.748Z,100.00
2018-11-14T23:26:32.821Z,100.00
2018-11-14T23:29:03.492Z,100.00
2018-11-14T23:31:34.109Z,100.00
2018-11-14T23:34:04.742Z,100.00
2018-11-14T23:36:35.318Z,100.00
2018-11-14T23:39:08.301Z,100.00
2018-11-14T23:41:38.870Z,100.00
2018-11-14T23:44:09.531Z,100.00
2018-11-14T23:46:40.118Z,100.00
2018-11-14T23:49:10.709Z,100.00
2018-11-14T23:51:41.329Z,100.00
2018-11-14T23:54:12.008Z,100.00
2018-11-14T23:56:42.552Z,100.00
2018-11-14T23:59:13.180Z,100.00
